Time;durP1;ratioP1;P1;durP2;ratioP2;P2;SDS_P1;SDS_P2;PMS_P1;PMS_P2;Temp;Humidity;BMP_temperature;BMP_pressure;BME280_temperature;BME280_humidity;BME280_pressure;Samples;Min_cycle;Max_cycle;Signal;HPM_P1;HPM_P2
2024/02/05 00:00:09;;;;;;;;;;;;;;;7.93;100.00;96214.50;10432865;28;2076;-66
2024/02/05 00:05:16;;;;;;;;;;;;;;;8.06;100.00;96214.97;10435470;28;2052;-65
2024/02/05 00:10:33;;;;;;;;;;;;;;;8.12;100.00;96211.28;10434823;28;2201;-64
2024/02/05 00:15:39;;;;;;;;;;;;;;;8.24;100.00;96205.03;10434259;28;2056;-64
2024/02/05 00:20:44;;;;;;;;;;;;;;;8.31;100.00;96194.94;10433671;28;2052;-65
2024/02/05 00:25:48;;;;;;;;;;;;;;;8.26;100.00;96192.19;10434730;28;2096;-65
2024/02/05 00:30:52;;;;;;;;;;;;;;;8.41;100.00;96191.63;10435955;28;2520;-67
2024/02/05 00:36:10;;;;;;;;;;;;;;;8.48;100.00;96185.00;10416901;28;2104;-67
2024/02/05 00:41:12;;;;;;;;;;;;;;;8.51;100.00;96200.56;10434730;28;2199;-64
2024/02/05 00:46:26;;;;;;;;;;;;;;;8.59;100.00;96192.09;10434216;28;2060;-65
2024/02/05 00:51:35;;;;;;;;;;;;;;;8.55;100.00;96190.16;10432105;28;2095;-65
2024/02/05 00:56:38;;;;;;;;;;;;;;;8.71;100.00;96193.81;10433356;28;2204;-64
2024/02/05 01:01:44;;;;;;;;;;;;;;;8.63;100.00;96198.56;10433401;28;2120;-65
2024/02/05 01:06:53;;;;;;;;;;;;;;;8.58;100.00;96206.53;10408382;28;2079;-70
2024/02/05 01:12:03;;;;;;;;;;;;;;;8.75;100.00;96203.78;10435949;28;2092;-64
2024/02/05 01:17:06;;;;;;;;;;;;;;;8.69;100.00;96206.66;10439170;28;2384;-64
2024/02/05 01:22:10;;;;;;;;;;;;;;;8.74;100.00;96193.34;10418614;28;2084;-66
2024/02/05 01:27:38;;;;;;;;;;;;;;;8.68;100.00;96186.28;10431944;28;2172;-65
2024/02/05 01:32:42;;;;;;;;;;;;;;;8.77;100.00;96217.75;10430771;28;2127;-65
2024/02/05 01:37:47;;;;;;;;;;;;;;;8.86;100.00;96226.16;10410464;28;1954;-65
2024/02/05 01:42:51;;;;;;;;;;;;;;;8.85;100.00;96236.09;10413168;28;2379;-68
2024/02/05 01:47:54;;;;;;;;;;;;;;;8.90;100.00;96241.47;10429110;28;2147;-69
2024/02/05 01:53:09;;;;;;;;;;;;;;;9.00;100.00;96242.66;10429690;28;2087;-64
2024/02/05 01:58:17;;;;;;;;;;;;;;;9.07;100.00;96241.41;10427120;28;2296;-65
2024/02/05 02:03:22;;;;;;;;;;;;;;;9.11;100.00;96257.81;10429452;28;2538;-71
2024/02/05 02:08:27;;;;;;;;;;;;;;;9.05;100.00;96259.63;10415405;28;2080;-66
2024/02/05 02:13:40;;;;;;;;;;;;;;;8.98;100.00;96250.97;10431265;28;2072;-65
2024/02/05 02:18:43;;;;;;;;;;;;;;;8.98;100.00;96250.16;10414980;28;2124;-65
2024/02/05 02:23:49;;;;;;;;;;;;;;;8.88;100.00;96243.63;10432598;28;2311;-65
2024/02/05 02:28:53;;;;;;;;;;;;;;;8.91;100.00;96236.97;10429641;28;2198;-65
2024/02/05 02:33:58;;;;;;;;;;;;;;;8.85;100.00;96249.50;10396605;28;2159;-65
2024/02/05 02:39:03;;;;;;;;;;;;;;;8.88;100.00;96237.44;10428231;28;2150;-68
2024/02/05 02:44:10;;;;;;;;;;;;;;;8.77;100.00;96249.09;10429768;28;2112;-65
2024/02/05 02:49:13;;;;;;;;;;;;;;;8.76;100.00;96244.81;10429384;28;2458;-65
2024/02/05 02:54:16;;;;;;;;;;;;;;;8.66;100.00;96253.56;10428194;28;2296;-66
2024/02/05 02:59:19;;;;;;;;;;;;;;;8.59;100.00;96258.28;10426854;28;2026;-69
2024/02/05 03:04:23;;;;;;;;;;;;;;;8.35;100.00;96266.56;10428925;28;2119;-67
2024/02/05 03:09:32;;;;;;;;;;;;;;;8.37;100.00;96271.66;10430923;28;2152;-65
2024/02/05 03:14:35;;;;;;;;;;;;;;;8.34;100.00;96253.38;10414582;28;2160;-65
2024/02/05 03:19:47;;;;;;;;;;;;;;;8.34;100.00;96266.78;10429715;28;2114;-65
2024/02/05 03:24:54;;;;;;;;;;;;;;;8.32;100.00;96269.66;10434411;28;2011;-64
2024/02/05 03:30:03;;;;;;;;;;;;;;;8.18;100.00;96287.16;10424433;28;2358;-65
2024/02/05 03:35:15;;;;;;;;;;;;;;;8.11;100.00;96284.66;10428225;28;2193;-65
2024/02/05 03:40:22;;;;;;;;;;;;;;;7.97;100.00;96296.75;10430062;28;2226;-65
2024/02/05 03:45:27;;;;;;;;;;;;;;;7.92;100.00;96314.59;10430343;28;2406;-65
2024/02/05 03:50:41;;;;;;;;;;;;;;;7.85;100.00;96314.75;10427468;28;2120;-64
2024/02/05 03:55:47;;;;;;;;;;;;;;;7.75;100.00;96336.00;10429947;28;2197;-64
2024/02/05 04:00:52;;;;;;;;;;;;;;;7.65;100.00;96335.84;10428534;28;1972;-65
2024/02/05 04:06:00;;;;;;;;;;;;;;;7.60;100.00;96336.53;10426669;28;2353;-65
2024/02/05 04:11:05;;;;;;;;;;;;;;;7.56;100.00;96349.59;10429674;28;2030;-69
2024/02/05 04:16:08;;;;;;;;;;;;;;;7.53;100.00;96363.44;10434427;28;2115;-63
2024/02/05 04:21:16;;;;;;;;;;;;;;;7.52;100.00;96367.19;10420570;28;2052;-65
2024/02/05 04:26:22;;;;;;;;;;;;;;;7.53;100.00;96363.44;10417863;28;2242;-65
2024/02/05 04:31:26;;;;;;;;;;;;;;;7.38;100.00;96355.16;10417460;28;2485;-67
2024/02/05 04:36:33;;;;;;;;;;;;;;;7.40;100.00;96382.47;10430413;28;1993;-67
2024/02/05 04:41:38;;;;;;;;;;;;;;;7.22;100.00;96374.63;10434794;28;2111;-67
2024/02/05 04:46:41;;;;;;;;;;;;;;;7.18;100.00;96381.47;10418484;28;2758;-65
2024/02/05 04:51:44;;;;;;;;;;;;;;;7.15;100.00;96384.63;10420396;28;2139;-75
2024/02/05 04:56:48;;;;;;;;;;;;;;;7.00;100.00;96399.31;10433237;28;2248;-65
2024/02/05 05:01:54;;;;;;;;;;;;;;;6.87;100.00;96401.41;10435238;28;2048;-65
2024/02/05 05:07:02;;;;;;;;;;;;;;;6.74;100.00;96399.81;10432142;28;2427;-66
2024/02/05 05:12:12;;;;;;;;;;;;;;;6.57;100.00;96409.59;10419024;28;2687;-64
2024/02/05 05:17:19;;;;;;;;;;;;;;;6.54;100.00;96412.69;10432709;28;2158;-65
2024/02/05 05:22:24;;;;;;;;;;;;;;;6.45;100.00;96412.25;10432209;28;2033;-65
2024/02/05 05:27:29;;;;;;;;;;;;;;;6.50;100.00;96412.38;10433330;28;2185;-67
2024/02/05 05:32:33;;;;;;;;;;;;;;;6.40;100.00;96410.25;10400539;28;2272;-65
2024/02/05 05:37:38;;;;;;;;;;;;;;;6.43;100.00;96425.84;10417918;28;2096;-67
2024/02/05 05:42:50;;;;;;;;;;;;;;;6.30;100.00;96427.88;10431693;28;2068;-74
2024/02/05 05:47:57;;;;;;;;;;;;;;;6.17;100.00;96427.09;10434334;28;2124;-66
2024/02/05 05:53:08;;;;;;;;;;;;;;;6.15;100.00;96428.34;10433486;28;2045;-69
2024/02/05 05:58:22;;;;;;;;;;;;;;;6.06;100.00;96435.06;10433088;28;2064;-66
2024/02/05 06:03:27;;;;;;;;;;;;;;;5.97;100.00;96443.38;10429087;28;2050;-66
2024/02/05 06:08:38;;;;;;;;;;;;;;;5.92;100.00;96448.59;10431389;28;2283;-71
2024/02/05 06:13:45;;;;;;;;;;;;;;;5.91;100.00;96449.63;10431861;28;2228;-66
2024/02/05 06:18:52;;;;;;;;;;;;;;;5.91;100.00;96456.81;10429440;28;2027;-71
2024/02/05 06:23:57;;;;;;;;;;;;;;;5.94;100.00;96449.19;10430871;28;2066;-72
2024/02/05 06:29:03;;;;;;;;;;;;;;;5.81;100.00;96454.69;10432400;28;2319;-70
2024/02/05 06:34:07;;;;;;;;;;;;;;;5.60;100.00;96471.19;10429131;28;2226;-66
2024/02/05 06:39:13;;;;;;;;;;;;;;;5.43;100.00;96473.66;10412716;28;2164;-68
2024/02/05 06:44:20;;;;;;;;;;;;;;;5.33;100.00;96481.34;10426851;28;2025;-65
2024/02/05 06:49:26;;;;;;;;;;;;;;;5.19;100.00;96480.69;10431728;28;2095;-66
2024/02/05 06:54:33;;;;;;;;;;;;;;;5.15;100.00;96476.81;10416557;28;2225;-70
2024/02/05 06:59:51;;;;;;;;;;;;;;;5.06;100.00;96488.81;10431052;28;2348;-70
2024/02/05 07:04:56;;;;;;;;;;;;;;;5.12;100.00;96491.41;10416076;28;2064;-73
2024/02/05 07:10:02;;;;;;;;;;;;;;;5.00;100.00;96501.19;10430801;28;1990;-70
2024/02/05 07:15:10;;;;;;;;;;;;;;;5.04;100.00;96501.56;10431937;28;2482;-67
2024/02/05 07:20:16;;;;;;;;;;;;;;;5.01;100.00;96502.00;10434297;28;2086;-67
2024/02/05 07:25:26;;;;;;;;;;;;;;;5.17;100.00;96501.41;10451111;28;2098;-66
2024/02/05 07:30:32;;;;;;;;;;;;;;;5.39;100.00;96504.44;10471222;28;2185;-68
2024/02/05 07:35:35;;;;;;;;;;;;;;;5.56;100.00;96499.34;10468471;28;2087;-67
2024/02/05 07:40:38;;;;;;;;;;;;;;;5.76;100.00;96494.56;10465990;28;2107;-68
2024/02/05 07:45:42;;;;;;;;;;;;;;;5.86;100.00;96484.19;10467202;28;2089;-66
2024/02/05 07:50:46;;;;;;;;;;;;;;;5.91;100.00;96475.50;10474925;28;2344;-66
2024/02/05 07:55:51;;;;;;;;;;;;;;;5.94;100.00;96481.22;10475035;28;2067;-69
2024/02/05 08:01:11;;;;;;;;;;;;;;;6.03;100.00;96483.56;10474299;28;2158;-66
2024/02/05 08:06:22;;;;;;;;;;;;;;;5.89;100.00;96478.38;10473178;28;2303;-65
2024/02/05 08:11:26;;;;;;;;;;;;;;;6.02;100.00;96476.59;10475248;28;2164;-65
2024/02/05 08:16:33;;;;;;;;;;;;;;;5.90;100.00;96468.50;10477725;28;2270;-66
2024/02/05 08:21:45;;;;;;;;;;;;;;;5.82;100.00;96477.66;10475511;28;2278;-64
2024/02/05 08:26:49;;;;;;;;;;;;;;;5.90;100.00;96479.19;10474125;28;2276;-68
2024/02/05 08:31:55;;;;;;;;;;;;;;;5.90;100.00;96471.19;10476632;28;2838;-68
2024/02/05 08:37:02;;;;;;;;;;;;;;;5.92;100.00;96458.47;10474235;28;2139;-67
2024/02/05 08:42:08;;;;;;;;;;;;;;;5.94;100.00;96465.19;10471666;28;2132;-66
2024/02/05 08:47:31;;;;;;;;;;;;;;;6.01;100.00;96453.63;10474147;28;2127;-68
2024/02/05 08:52:37;;;;;;;;;;;;;;;6.12;100.00;96463.50;10455331;28;2187;-66
2024/02/05 08:57:44;;;;;;;;;;;;;;;6.18;100.00;96459.94;10473402;28;2127;-64
2024/02/05 09:02:50;;;;;;;;;;;;;;;6.35;100.00;96454.72;10473470;28;2076;-65
2024/02/05 09:07:55;;;;;;;;;;;;;;;6.37;100.00;96458.00;10456432;28;2197;-65
2024/02/05 09:12:59;;;;;;;;;;;;;;;6.35;100.00;96444.84;10473637;28;2099;-66
2024/02/05 09:18:14;;;;;;;;;;;;;;;6.52;100.00;96441.50;10473740;28;2102;-65
2024/02/05 09:23:18;;;;;;;;;;;;;;;6.60;100.00;96423.28;10450631;28;2019;-66
2024/02/05 09:28:22;;;;;;;;;;;;;;;6.69;100.00;96424.56;10477998;28;2221;-69
2024/02/05 09:33:26;;;;;;;;;;;;;;;6.87;100.00;96420.13;10457116;28;2111;-66
2024/02/05 09:38:33;;;;;;;;;;;;;;;7.03;100.00;96420.22;10453774;28;2096;-66
2024/02/05 09:43:36;;;;;;;;;;;;;;;7.16;100.00;96426.38;10473746;28;2022;-65
2024/02/05 09:48:53;;;;;;;;;;;;;;;7.68;100.00;96426.31;10471069;28;2051;-75
2024/02/05 09:54:13;;;;;;;;;;;;;;;8.01;100.00;96420.22;10469264;28;2115;-74
2024/02/05 09:59:31;;;;;;;;;;;;;;;7.85;100.00;96397.75;10469285;28;2019;-66
2024/02/05 10:04:34;;;;;;;;;;;;;;;7.87;100.00;96414.34;10468793;28;2102;-66
2024/02/05 10:09:38;;;;;;;;;;;;;;;8.09;100.00;96417.16;10470428;28;2225;-65
2024/02/05 10:14:43;;;;;;;;;;;;;;;8.23;100.00;96407.75;10469109;28;2172;-69
2024/02/05 10:19:50;;;;;;;;;;;;;;;8.30;100.00;96397.69;10454065;28;2019;-65
2024/02/05 10:25:01;;;;;;;;;;;;;;;8.32;100.00;96390.22;10453016;28;3038;-67
2024/02/05 10:30:17;;;;;;;;;;;;;;;8.47;100.00;96380.84;10469260;28;2126;-75
2024/02/05 10:35:21;;;;;;;;;;;;;;;8.59;100.00;96385.06;10469455;28;2033;-69
2024/02/05 10:40:26;;;;;;;;;;;;;;;8.90;100.00;96364.00;10470750;28;2144;-70
2024/02/05 10:45:30;;;;;;;;;;;;;;;9.08;100.00;96357.53;10469972;28;2124;-69
2024/02/05 10:50:39;;;;;;;;;;;;;;;9.29;100.00;96361.25;10467030;28;2131;-68
2024/02/05 10:55:49;;;;;;;;;;;;;;;9.41;100.00;96345.84;10470353;28;2083;-71
2024/02/05 11:00:59;;;;;;;;;;;;;;;9.55;100.00;96344.41;10454454;28;2071;-70
2024/02/05 11:06:04;;;;;;;;;;;;;;;9.69;100.00;96334.88;10473987;28;2292;-69
2024/02/05 11:11:12;;;;;;;;;;;;;;;9.69;100.00;96317.97;10467474;28;2601;-68
2024/02/05 11:16:21;;;;;;;;;;;;;;;9.85;100.00;96308.16;10466463;28;2246;-69
2024/02/05 11:21:29;;;;;;;;;;;;;;;9.91;100.00;96315.19;10468705;28;2025;-69
2024/02/05 11:26:32;;;;;;;;;;;;;;;10.17;100.00;96302.75;10482572;28;2217;-70
2024/02/05 11:31:36;;;;;;;;;;;;;;;10.41;100.00;96292.47;10477549;28;2115;-68
2024/02/05 11:36:41;;;;;;;;;;;;;;;10.58;100.00;96287.75;10455896;28;2047;-69
2024/02/05 11:41:52;;;;;;;;;;;;;;;10.69;100.00;96288.63;10476327;28;2073;-73
2024/02/05 11:46:56;;;;;;;;;;;;;;;10.80;100.00;96279.50;10456905;28;2332;-68
2024/02/05 11:52:01;;;;;;;;;;;;;;;10.83;100.00;96279.81;10453528;28;2128;-68
2024/02/05 11:57:09;;;;;;;;;;;;;;;10.99;100.00;96267.22;10469958;28;3072;-68
2024/02/05 12:02:16;;;;;;;;;;;;;;;11.05;100.00;96274.22;10473188;28;2178;-69
2024/02/05 12:07:18;;;;;;;;;;;;;;;11.25;100.00;96269.97;10470614;28;2134;-67
2024/02/05 12:12:25;;;;;;;;;;;;;;;11.33;100.00;96262.22;10453631;28;2124;-70
2024/02/05 12:17:31;;;;;;;;;;;;;;;11.43;100.00;96256.03;10473845;28;2119;-69
2024/02/05 12:22:42;;;;;;;;;;;;;;;11.50;100.00;96239.59;10472323;28;2107;-69
2024/02/05 12:27:48;;;;;;;;;;;;;;;11.63;100.00;96236.38;10477029;28;2189;-69
2024/02/05 12:32:54;;;;;;;;;;;;;;;11.68;100.00;96220.25;10472464;28;2158;-74
2024/02/05 12:37:59;;;;;;;;;;;;;;;11.76;100.00;96219.69;10474187;28;2227;-68
2024/02/05 12:43:08;;;;;;;;;;;;;;;11.87;100.00;96210.56;10473323;28;2379;-69
2024/02/05 12:53:50;;;;;;;;;;;;;;;12.02;100.00;96203.53;10469438;28;2067;-70
2024/02/05 12:59:02;;;;;;;;;;;;;;;12.11;100.00;96199.22;10453690;28;2044;-70
2024/02/05 13:04:11;;;;;;;;;;;;;;;12.12;100.00;96187.34;10472336;28;2043;-69
2024/02/05 13:09:20;;;;;;;;;;;;;;;12.11;100.00;96169.59;10469009;28;2110;-72
2024/02/05 13:14:27;;;;;;;;;;;;;;;12.17;93.65;96174.69;10469577;28;2204;-68
2024/02/05 13:19:32;;;;;;;;;;;;;;;12.25;91.00;96170.63;10470229;28;2047;-68
2024/02/05 13:24:43;;;;;;;;;;;;;;;12.29;90.14;96157.41;10474659;28;2075;-69
2024/02/05 13:29:52;;;;;;;;;;;;;;;12.42;87.16;96165.72;10452092;28;2320;-74
2024/02/05 13:34:55;;;;;;;;;;;;;;;12.43;84.59;96150.34;10467403;28;2161;-65
2024/02/05 13:39:59;;;;;;;;;;;;;;;12.50;83.34;96140.06;10468861;28;2083;-67
2024/02/05 13:45:03;;;;;;;;;;;;;;;12.45;83.74;96146.28;10469636;28;2237;-69
2024/02/05 13:50:08;;;;;;;;;;;;;;;12.58;83.07;96130.59;10467226;28;2101;-67
2024/02/05 13:55:17;;;;;;;;;;;;;;;12.60;81.92;96131.94;10469271;28;2074;-64
2024/02/05 14:00:31;;;;;;;;;;;;;;;12.70;82.02;96125.66;10467165;28;2151;-65
2024/02/05 14:05:35;;;;;;;;;;;;;;;12.57;84.18;96129.78;10467629;28;2103;-64
2024/02/05 14:10:46;;;;;;;;;;;;;;;12.58;85.53;96133.28;10470011;28;2257;-67
2024/02/05 14:15:51;;;;;;;;;;;;;;;12.64;85.19;96124.06;10471519;28;2234;-66
2024/02/05 14:21:01;;;;;;;;;;;;;;;12.59;81.32;96122.22;10470952;28;2103;-69
2024/02/05 14:26:14;;;;;;;;;;;;;;;12.61;81.11;96121.94;10467024;28;2218;-67
2024/02/05 14:31:20;;;;;;;;;;;;;;;12.79;75.03;96117.78;10472942;28;2107;-67
2024/02/05 14:36:29;;;;;;;;;;;;;;;12.81;73.79;96119.13;10470882;28;2164;-66
2024/02/05 14:41:45;;;;;;;;;;;;;;;12.67;73.76;96120.84;10468368;28;2059;-64
2024/02/05 14:46:49;;;;;;;;;;;;;;;12.50;74.09;96112.28;10471104;28;2079;-67
2024/02/05 14:51:52;;;;;;;;;;;;;;;12.52;74.03;96104.72;10467536;28;2035;-65
2024/02/05 14:57:03;;;;;;;;;;;;;;;12.49;71.74;96102.59;10473584;28;2051;-67
2024/02/05 15:02:06;;;;;;;;;;;;;;;12.58;69.08;96098.22;10469265;28;2124;-67
2024/02/05 15:07:14;;;;;;;;;;;;;;;12.52;68.95;96085.84;10467890;28;2138;-68
2024/02/05 15:12:17;;;;;;;;;;;;;;;12.44;70.35;96092.63;10472544;28;2905;-74
2024/02/05 15:17:31;;;;;;;;;;;;;;;12.34;68.53;96093.50;10457293;28;2209;-73
2024/02/05 15:22:38;;;;;;;;;;;;;;;12.35;67.69;96091.63;10469520;28;2117;-68
2024/02/05 15:27:41;;;;;;;;;;;;;;;12.17;70.57;96101.13;10467695;28;2253;-66
2024/02/05 15:32:48;;;;;;;;;;;;;;;12.02;72.43;96090.38;10468526;28;2122;-66
2024/02/05 15:37:53;;;;;;;;;;;;;;;11.83;73.83;96093.69;10469381;28;2203;-66
2024/02/05 15:43:00;;;;;;;;;;;;;;;11.72;76.29;96094.75;10468503;28;2064;-65
2024/02/05 15:48:05;;;;;;;;;;;;;;;11.69;78.43;96092.59;10467172;28;2133;-67
2024/02/05 15:53:08;;;;;;;;;;;;;;;11.49;80.27;96089.94;10464796;28;2188;-64
2024/02/05 15:58:15;;;;;;;;;;;;;;;11.35;81.01;96087.00;10467843;28;2135;-66
2024/02/05 16:03:27;;;;;;;;;;;;;;;11.22;82.40;96074.88;10468766;28;2985;-64
2024/02/05 16:08:42;;;;;;;;;;;;;;;11.10;83.78;96074.34;10468752;28;2170;-65
2024/02/05 16:13:54;;;;;;;;;;;;;;;10.98;86.84;96079.19;10473586;28;2302;-67
2024/02/05 16:19:00;;;;;;;;;;;;;;;10.92;87.09;96073.00;10474687;28;2164;-67
2024/02/05 16:24:05;;;;;;;;;;;;;;;10.89;88.21;96073.53;10471044;28;2118;-65
2024/02/05 16:29:19;;;;;;;;;;;;;;;10.83;89.32;96074.63;10475577;28;2175;-65
2024/02/05 16:34:22;;;;;;;;;;;;;;;10.80;87.46;96067.88;10475746;28;2118;-64
2024/02/05 16:39:31;;;;;;;;;;;;;;;10.51;92.11;96069.47;10475556;28;2087;-64
2024/02/05 16:44:36;;;;;;;;;;;;;;;10.35;94.17;96068.59;10457943;28;2171;-64
2024/02/05 16:49:44;;;;;;;;;;;;;;;10.22;94.93;96067.19;10471414;28;2809;-67
2024/02/05 16:54:52;;;;;;;;;;;;;;;10.01;98.54;96068.19;10471330;28;2093;-64
2024/02/05 16:59:56;;;;;;;;;;;;;;;9.93;99.41;96066.00;10472272;28;1988;-64
2024/02/05 17:05:01;;;;;;;;;;;;;;;9.86;100.00;96062.72;10473780;28;2004;-64
2024/02/05 17:10:07;;;;;;;;;;;;;;;9.66;100.00;96056.19;10453990;28;2079;-65
2024/02/05 17:15:13;;;;;;;;;;;;;;;9.61;100.00;96053.50;10474029;28;2282;-64
2024/02/05 17:20:21;;;;;;;;;;;;;;;9.70;100.00;96054.63;10468945;28;2001;-67
2024/02/05 17:25:24;;;;;;;;;;;;;;;9.60;100.00;96051.88;10472023;28;2258;-64
2024/02/05 17:30:36;;;;;;;;;;;;;;;9.64;100.00;96046.81;10469373;28;2821;-70
2024/02/05 17:35:39;;;;;;;;;;;;;;;9.64;98.64;96039.56;10471736;28;2262;-63
2024/02/05 17:40:45;;;;;;;;;;;;;;;9.58;98.25;96039.78;10472109;28;2055;-64
2024/02/05 17:45:54;;;;;;;;;;;;;;;9.43;100.00;96040.53;10451833;28;2068;-65
2024/02/05 17:50:59;;;;;;;;;;;;;;;9.58;95.87;96037.91;10469971;28;2110;-64
2024/02/05 17:56:03;;;;;;;;;;;;;;;9.51;94.91;96041.91;10470138;28;2000;-64
2024/02/05 18:01:09;;;;;;;;;;;;;;;9.48;92.94;96037.88;10470440;28;2300;-66
2024/02/05 18:11:42;;;;;;;;;;;;;;;9.37;92.48;96030.81;10469064;28;2040;-70
2024/02/05 18:16:49;;;;;;;;;;;;;;;9.35;89.99;96032.94;10471395;28;2250;-65
2024/02/05 18:21:59;;;;;;;;;;;;;;;9.28;87.76;96030.50;10465298;28;2157;-70
2024/02/05 18:27:05;;;;;;;;;;;;;;;9.26;86.83;96021.91;10469726;28;2222;-67
2024/02/05 18:32:16;;;;;;;;;;;;;;;9.09;88.33;96035.47;10469380;28;2335;-66
2024/02/05 18:47:58;;;;;;;;;;;;;;;9.09;88.20;96022.03;10471191;28;2075;-65
2024/02/05 18:53:10;;;;;;;;;;;;;;;9.00;89.02;96022.81;10473003;28;2093;-65
2024/02/05 18:58:16;;;;;;;;;;;;;;;8.97;85.54;96015.25;10475409;28;2110;-67
2024/02/05 19:03:32;;;;;;;;;;;;;;;8.98;83.30;96004.28;10471901;28;2412;-69
2024/02/05 19:08:37;;;;;;;;;;;;;;;9.00;81.51;96007.53;10471575;28;2128;-65
2024/02/05 19:13:42;;;;;;;;;;;;;;;9.06;77.52;96009.16;10471130;28;2145;-65
2024/02/05 19:18:46;;;;;;;;;;;;;;;9.00;78.07;96007.53;10477106;28;2079;-70
2024/02/05 19:23:55;;;;;;;;;;;;;;;9.04;75.94;96015.88;10473855;28;2279;-65
2024/02/05 19:29:03;;;;;;;;;;;;;;;8.86;77.19;96003.66;10473809;28;2227;-67
2024/02/05 19:34:13;;;;;;;;;;;;;;;8.81;76.82;96004.44;10471874;28;2071;-69
2024/02/05 19:39:28;;;;;;;;;;;;;;;8.79;76.15;96000.41;10469704;28;2122;-66
2024/02/05 19:44:35;;;;;;;;;;;;;;;8.88;72.32;95993.50;10477004;28;2312;-65
2024/02/05 19:49:43;;;;;;;;;;;;;;;8.71;74.30;95990.94;10479408;28;2047;-65
2024/02/05 19:54:53;;;;;;;;;;;;;;;8.60;76.16;95987.38;10477763;28;2134;-65
2024/02/05 20:00:29;;;;;;;;;;;;;;;8.70;77.15;95988.53;10476240;28;2132;-65
2024/02/05 20:05:40;;;;;;;;;;;;;;;8.88;76.15;95977.41;10472807;28;2151;-66
2024/02/05 20:10:49;;;;;;;;;;;;;;;8.64;78.30;95985.78;10474678;28;2072;-65
2024/02/05 20:16:13;;;;;;;;;;;;;;;8.78;78.11;95985.34;10484116;28;2049;-65
2024/02/05 20:21:21;;;;;;;;;;;;;;;8.77;77.99;95986.44;10459130;28;2112;-65
2024/02/05 20:26:27;;;;;;;;;;;;;;;8.70;78.98;95980.47;10478539;28;2130;-66
2024/02/05 20:31:39;;;;;;;;;;;;;;;8.53;83.53;95986.78;10456785;28;2080;-66
2024/02/05 20:36:44;;;;;;;;;;;;;;;8.58;83.02;95983.31;10472727;28;2298;-66
2024/02/05 20:41:54;;;;;;;;;;;;;;;8.46;86.57;95978.16;10473984;28;2254;-66
2024/02/05 20:47:02;;;;;;;;;;;;;;;8.43;87.46;95978.66;10476433;28;2122;-67
2024/02/05 20:52:09;;;;;;;;;;;;;;;8.43;88.10;95967.94;10477289;28;2110;-68
2024/02/05 20:57:16;;;;;;;;;;;;;;;8.31;92.08;95964.59;10442116;28;2219;-66
2024/02/05 21:02:22;;;;;;;;;;;;;;;8.25;93.78;95968.28;10475906;28;1973;-65
2024/02/05 21:07:35;;;;;;;;;;;;;;;8.12;95.53;95964.94;10471279;28;2118;-65
2024/02/05 21:12:41;;;;;;;;;;;;;;;8.11;97.72;95957.97;10477924;28;1985;-65
2024/02/05 21:17:47;;;;;;;;;;;;;;;8.06;97.81;95949.91;10480895;28;2123;-68
2024/02/05 21:22:52;;;;;;;;;;;;;;;8.06;99.01;95957.13;10473313;28;2174;-68
2024/02/05 21:27:59;;;;;;;;;;;;;;;8.12;96.37;95946.22;10474491;28;2436;-65
2024/02/05 21:33:16;;;;;;;;;;;;;;;8.38;91.88;95943.78;10472370;28;2111;-65
2024/02/05 21:38:28;;;;;;;;;;;;;;;8.77;83.14;95936.31;10474182;28;2078;-65
2024/02/05 21:43:32;;;;;;;;;;;;;;;8.83;80.75;95932.59;10476623;28;2056;-65
2024/02/05 21:48:36;;;;;;;;;;;;;;;8.87;81.22;95938.25;10472233;28;2187;-65
2024/02/05 21:53:43;;;;;;;;;;;;;;;9.00;80.87;95937.00;10471202;28;2142;-65
2024/02/05 21:58:48;;;;;;;;;;;;;;;8.95;81.97;95935.09;10472623;28;1986;-65
2024/02/05 22:03:51;;;;;;;;;;;;;;;9.04;81.05;95920.16;10473462;28;2043;-64
2024/02/05 22:08:56;;;;;;;;;;;;;;;9.04;83.32;95930.88;10472059;28;2353;-69
2024/02/05 22:14:00;;;;;;;;;;;;;;;9.15;84.14;95924.47;10456604;28;2144;-68
2024/02/05 22:19:08;;;;;;;;;;;;;;;9.03;88.96;95912.34;10472736;28;2071;-65
2024/02/05 22:24:16;;;;;;;;;;;;;;;8.91;92.93;95913.38;10477510;28;1999;-66
2024/02/05 22:29:28;;;;;;;;;;;;;;;8.94;95.01;95912.03;10472327;28;2138;-66
2024/02/05 22:34:31;;;;;;;;;;;;;;;8.76;97.70;95909.78;10474254;28;2028;-65
2024/02/05 22:39:35;;;;;;;;;;;;;;;8.83;98.32;95903.09;10455807;28;2241;-65
2024/02/05 22:44:39;;;;;;;;;;;;;;;8.89;97.95;95906.63;10472365;28;2008;-69
2024/02/05 22:49:44;;;;;;;;;;;;;;;8.80;100.00;95913.56;10453781;28;2219;-69
2024/02/05 22:54:53;;;;;;;;;;;;;;;8.75;100.00;95905.47;10468198;28;2064;-64
2024/02/05 22:59:58;;;;;;;;;;;;;;;8.88;100.00;95897.78;10470882;28;2020;-65
2024/02/05 23:05:02;;;;;;;;;;;;;;;8.77;100.00;95897.97;10469179;28;2068;-65
2024/02/05 23:10:08;;;;;;;;;;;;;;;8.79;100.00;95890.50;10451144;28;2308;-64
2024/02/05 23:15:14;;;;;;;;;;;;;;;8.87;100.00;95892.69;10452739;28;2127;-69
2024/02/05 23:20:20;;;;;;;;;;;;;;;8.93;100.00;95891.66;10472967;28;2118;-64
2024/02/05 23:25:24;;;;;;;;;;;;;;;8.82;100.00;95895.34;10453331;28;2114;-65
2024/02/05 23:30:28;;;;;;;;;;;;;;;8.81;100.00;95891.03;10471843;28;2273;-64
2024/02/05 23:35:34;;;;;;;;;;;;;;;8.63;100.00;95890.41;10470092;28;2142;-71
2024/02/05 23:40:38;;;;;;;;;;;;;;;8.66;100.00;95892.56;10467967;28;2099;-66
2024/02/05 23:45:43;;;;;;;;;;;;;;;8.63;100.00;95885.03;10472031;28;2401;-65
2024/02/05 23:50:51;;;;;;;;;;;;;;;8.57;100.00;95875.34;10469550;28;2222;-64
2024/02/05 23:56:03;;;;;;;;;;;;;;;8.53;100.00;95882.31;10470855;28;2125;-70
